Aérodrome :
LOGIN :

S'inscrire | Disclaimer

   EN    FR    IT 

 










Légende :    VFR   VFR Marginal   IFR   IFR Intensif   IFR Très Intensif
Visi : 
Plafond : 
>= 8 km
>= 3000ft
5 à 8 km
1000 à 3000 ft
1500m à 5 km
500 à 1000 ft
800 à 1500m
200 à 500 ft
< 800m
< 200 ft
Symboles :   Orages  Brouillard  Fortes neiges  Fortes précipitations  Vent > 20 kt
SIGMETs :   Divers  Orages  Givrage  Turbulence  Onde Orograph.  Cendres Volcan.







- Altitude de l'aérodrome : 1768 ft


LEHC - Huesca Pirineos

DERNIER METAR :
  • 170930Z 06009KT CAVOK 11/M08 Q1026

METARs EXPIRÉS :
  • 170900Z 06006KT 040V100 CAVOK 10/M05 Q1026
  • 170830Z 05003KT 020V080 CAVOK 07/M05 Q1026
  • 170800Z VRB01KT CAVOK 06/M06 Q1026
  • 170730Z AUTO VRB02KT 9999 NCD 02/M07 Q1026
  • 170700Z AUTO 09003KT 9999 NCD 02/M07 Q1026

TAF TAF LEHC
Valide du 17 à 09h jusqu'au 18 à 09h UTC


170800Z 1709/1809 09009KT 9999 FEW030 TX17/1714Z TN01/1807Z
Pas de NOTAMs connus pour ce terrain.
1 SIGMET publié pour la FIR Madrid (LECM) :
 
Onde orographique forte
LECM SIGMET 3 VALID 170900/171200 LEVA
LECM MADRID FIR/UIR SEV MTW OBS AT 0845Z WI N4344 W00607 - N4249 W00607 - N4245 W00322 - N4341 W00322 - N4344 W00607 SFC/FL300 STNR NC=



MET'MAP, la Météo Aéronautique d'un coup d'oeil ! - Copyright ORBIFLY Décembre 2007 - Disclaimer

ORBIFLY MET'MAP TEAM :

Programmation & Développement : Alexandra Zaïnal
Conception & Développement : Baudouin d'Aumeries
Co-Programmation & Développement : Marc-Olivier Méhu
Soutien technique & logistique : Manuel Goepfert

Contact : metmap@orbifly.com




SOURCES & CREDITS :

   NOAA